CheckWX is a tool to help pilots better visualize weather data.  It is not intended as a substitute for an official pre-flight weather briefing.

08:37:44 UTC

CYZF TAF
Yellowknife Airport
Yellowknife, Canada
TAF CYZF 170538Z 1706/1806 16008KT P6SM FEW070 SCT140 PROB30 1706/1708 VRB15G25KT 5SM TSRA BKN070CB FM172000 24008KT P6SM BKN080 PROB40 1720/1804 VRB15G25KT 4SM TSRA BKN060CB RMK NXT FCST BY 171200Z

Jul-17@
06:00 UTC

Jul-17 @ 06:00 UTC

Jul-17@
20:00 UTC

Jul-17 @ 20:00 UTC

TAF CYZF 170538Z 1706/1806 16008KT P6SM FEW070 SCT140
Wind
  • 160° at 8 KTS
Cloud Levels
  • Few at 7,000' AGL
  • Scattered at 14,000' AGL

Jul-17@
06:00 UTC

Jul-17 @ 06:00 UTC

Jul-17@
08:00 UTC

Jul-17 @ 08:00 UTC

PROB30 1706/1708 VRB15G25KT 5SM TSRA BKN070CB

Expired

Wind
  • Variable at 15 KTS
  • {Gusting to 25 KTS
Conditions
Thunderstorm, Rain
Cloud Levels
  • Broken at 7,000' AGL

Jul-17@
20:00 UTC

Jul-17 @ 20:00 UTC

Jul-18@
04:00 UTC

Jul-18 @ 04:00 UTC

PROB40 1720/1804 VRB15G25KT 4SM TSRA BKN060CB RMK NXT FCST BY 171200Z

Probable - 40% Likelihood

Probable - 40% Likelihood during this time.

Wind
  • Variable at 15 KTS
  • {Gusting to 25 KTS
Conditions
Thunderstorm, Rain
Cloud Levels
  • Broken at 6,000' AGL

Jul-17@
20:00 UTC

Jul-17 @ 20:00 UTC

Jul-18@
06:00 UTC

Jul-18 @ 06:00 UTC

FM172000 24008KT P6SM BKN080

From

From Standard forecast or significant change

Wind
  • 240° at 8 KTS
Cloud Levels
  • Broken at 8,000' AGL